Latest Coastal Weather Observations for Devonport Airport

IDV60701

Issued at 5:11 pm EDT Sunday 14 February 2016 (issued every 10 minutes, with the page automatically refreshed every 10 minutes)

About coastal observations | Map of coastal stations | Coastal observations for VIC | Marine services | Other Formats
Station Details ID: 091126 Name: DEVONPORT AIRPORT Lat: -41.17 Lon: 146.43 Height: 8.0 m
Data from the previous 72 hours. | See also: Recent months at Devonport Airport
Date/Time
EDT
Temp

°C
Wind Pressure Rain
since 9am
mm
Weather Cloud Vis
km
Sea
Height
m
Swell
Dir
 
Speed
knots
Gust
knots
hPa Trend Height
m
Period
s
Dir
14/05:03pm 20.6 WSW 23 35 1006.2 - 0.0 - Partly cloudy 10 - - - -
14/05:00pm 20.4 WSW 21 29 1006.3 - 0.0 - Partly cloudy 10 - - - -
14/04:30pm 20.3 WSW 22 33 1006.1 - 0.0 - - 10 - - - -
14/04:27pm 20.5 WSW 22 33 1006.1 - 0.0 - Partly cloudy 10 - - - -
14/04:00pm 20.7 WSW 20 30 1005.8 - 0.0 - Partly cloudy 10 - - - -
14/03:34pm 20.3 W 24 34 1005.6 - 0.0 - Partly cloudy 10 - - - -
14/03:30pm 21.5 W 23 31 1005.7 - 0.0 - Partly cloudy 10 - - - -
14/03:22pm 21.1 WSW 21 31 1005.6 - 0.0 - Partly cloudy 10 - - - -
14/03:00pm 21.8 W 21 27 1005.3 - 0.0 - Partly cloudy 10 - - - -
14/02:43pm 20.6 WNW 23 33 1005.2 - 0.0 - Partly cloudy 10 - - - -
14/02:35pm 22.0 W 19 29 1005.2 - 0.0 - Partly cloudy 10 - - - -
14/02:30pm 21.0 WSW 19 28 1005.5 - 0.0 - Partly cloudy 10 - - - -
14/02:20pm 21.3 WNW 21 27 1005.2 - 0.0 - Partly cloudy 9 - - - -
14/02:00pm 21.0 WNW 26 33 1004.9 - 0.0 - Partly cloudy 10 - - - -
14/01:30pm 20.9 WNW 25 34 1004.8 - 0.0 - Partly cloudy 10 - - - -
14/01:28pm 20.6 WNW 24 34 1004.7 - 0.0 - Partly cloudy 10 - - - -
14/01:00pm 21.0 NW 21 28 1004.9 - 0.0 - Partly cloudy 10 - - - -
14/12:30pm 19.5 NW 22 27 1005.2 - 0.0 - Partly cloudy 10 - - - -
14/12:21pm 20.9 NW 20 27 1005.1 - 0.0 - Partly cloudy 10 - - - -
14/12:00pm 20.7 WNW 21 27 1005.4 - 0.0 - Cloudy 6 - - - -
14/11:33am 20.3 WNW 18 23 1005.6 - 0.0 - Partly cloudy 6 - - - -
14/11:30am 20.1 WNW 19 29 1005.7 - 0.0 - Partly cloudy 7 - - - -
14/11:00am 20.6 WNW 19 24 1005.8 - 0.0 - Partly cloudy 10 - - - -
14/10:30am 19.5 W 17 25 1006.0 - 0.0 - Partly cloudy 10 - - - -
14/10:19am 19.7 W 19 25 1005.9 - 0.0 - Partly cloudy 10 - - - -
14/10:00am 18.4 WNW 17 21 1005.9 - 0.0 - Partly cloudy 4 - - - -
14/09:30am 17.6 WNW 17 22 1006.0 - 0.0 - Cloudy 4 - - - -
14/09:00am 17.1 WNW 17 22 1005.9 - 0.0 - Cloudy 4 - - - -
14/08:30am 16.5 WNW 17 20 1005.7 - 0.0 - Partly cloudy 4 - - - -
14/08:00am 16.3 WNW 15 20 1005.9 - 0.0 - Cloudy 4 - - - -
14/07:30am 15.7 WNW 16 21 1005.7 - 0.0 - Cloudy 4 - - - -
14/07:27am 15.8 WNW 15 21 1005.7 - 0.0 - Partly cloudy 4 - - - -
14/07:00am 14.0 W 8 9 1005.5 - 0.0 - Partly cloudy 6 - - - -
14/06:57am 14.0 W 8 9 1005.4 - 0.0 - Partly cloudy 6 - - - -
14/06:51am 13.7 W 8 9 1005.4 - 0.0 - Cloudy 7 - - - -
14/06:30am 14.4 W 10 11 1005.2 - 0.0 - Partly cloudy 6 - - - -
14/06:04am 15.3 W 13 17 1004.9 - 0.0 - Partly cloudy 6 - - - -
14/06:00am 15.1 W 13 17 1004.9 - 0.0 - Mostly clear 6 - - - -
14/05:40am 14.7 W 12 16 1004.8 - 0.0 - Partly cloudy 5 - - - -
14/05:30am 14.3 W 11 17 1004.9 - 0.0 - Partly cloudy 6 - - - -
14/05:28am 14.3 W 11 17 1004.8 - 0.0 - Partly cloudy 6 - - - -
14/05:00am 13.0 WSW 8 10 1004.8 - 0.0 - Partly cloudy 10 - - - -
14/04:30am 13.5 WSW 9 12 1005.0 - 0.0 - - 10 - - - -
14/04:00am 15.0 W 12 16 1005.0 - 0.0 - - 10 - - - -
14/03:30am 15.8 WNW 15 18 1005.1 - 0.0 - - 10 - - - -
14/03:00am 15.6 WNW 16 22 1005.0 - 0.0 - - 10 - - - -
14/02:58am 15.8 WNW 16 22 1005.0 - 0.0 - - 10 - - - -
14/02:30am 15.7 WNW 9 12 1005.0 - 0.0 - Partly cloudy 10 - - - -
14/02:00am 14.5 W 5 5 1005.1 - 0.0 - - 10 - - - -
14/01:30am 14.4 WSW 6 8 1005.0 - 0.0 - - 10 - - - -
14/01:00am 15.2 W 10 13 1005.5 - 0.0 - - 10 - - - -
14/12:30am 14.2 W 9 10 1005.6 - 0.0 - - 10 - - - -
14/12:00am 15.5 W 9 11 1005.7 - 0.0 - - 10 - - - -
 
Date/Time
EDT
Temp

°C
Wind Pressure Rain
since 9am
mm
Weather Cloud Vis
km
Sea
Height
m
Swell
Dir
 
Speed
knots
Gust
knots
hPa Trend Height
m
Period
s
Dir
13/11:30pm 16.1 WSW 10 14 1005.7 - 0.0 - - 10 - - - -
13/11:00pm 17.3 WSW 11 14 1006.2 - 0.0 - - 10 - - - -
13/10:30pm 17.8 W 13 21 1006.2 - 0.0 - Partly cloudy 10 - - - -
13/10:00pm 18.4 W 14 18 1005.8 - 0.0 - Partly cloudy 10 - - - -
13/09:30pm 19.4 W 14 18 1005.0 - 0.0 - Partly cloudy 10 - - - -
13/09:00pm 19.8 W 13 18 1004.6 - 0.0 - Mostly clear 10 - - - -
13/08:30pm 20.7 WNW 17 21 1004.2 - 0.0 - Partly cloudy 7 - - - -
13/08:00pm 20.7 WNW 22 27 1003.9 - 0.0 - Partly cloudy 10 - - - -
13/07:30pm 20.9 WNW 24 31 1003.8 - 0.0 - Partly cloudy 10 - - - -
13/07:00pm 21.1 NW 25 30 1003.2 - 0.0 - Partly cloudy 10 - - - -
13/06:56pm 21.1 NW 23 29 1003.2 - 0.0 - Partly cloudy 10 - - - -
13/06:35pm 21.5 NW 23 30 1002.9 - 0.0 - Partly cloudy 10 - - - -
13/06:30pm 21.4 NW 23 29 1002.9 - 0.0 - Partly cloudy 10 - - - -
13/06:20pm 21.7 NW 23 29 1002.8 - 0.0 - Partly cloudy 10 - - - -
13/06:00pm 22.9 NW 22 28 1002.7 - 0.0 - Mostly cloudy 4 - - - -
13/05:30pm 23.0 NW 24 30 1002.4 - 0.0 - Partly cloudy 4 - - - -
13/05:00pm 22.7 NW 21 25 1002.4 - 0.0 - Partly cloudy 6 - - - -
13/04:54pm 22.5 NW 21 25 1002.4 - 0.0 - Partly cloudy 6 - - - -
13/04:30pm 22.0 NW 24 30 1002.5 - 0.0 - Partly cloudy 10 - - - -
13/04:00pm 22.1 NW 21 30 1002.8 - 0.0 - Partly cloudy 10 - - - -
13/03:30pm 21.9 NW 20 26 1003.5 - 0.0 - Partly cloudy 10 - - - -
13/03:00pm 21.9 NW 19 23 1003.9 - 0.0 - Mostly clear 10 - - - -
13/02:30pm 22.4 NW 19 25 1004.1 - 0.0 - - 10 - - - -
13/02:00pm 22.6 NNW 17 21 1004.4 - 0.0 - - 10 - - - -
13/01:30pm 22.7 NNW 14 17 1004.7 - 0.0 - - 10 - - - -
13/01:00pm 21.9 NNW 14 17 1004.9 - 0.0 - - 10 - - - -
13/12:30pm 22.6 NNW 12 15 1005.3 - 0.0 - - 10 - - - -
13/12:00pm 21.8 NNW 10 12 1005.8 - 0.0 - - 10 - - - -
13/11:30am 20.6 N 7 9 1006.1 - 0.0 - - 10 - - - -
13/11:00am 20.8 N 7 9 1006.5 - 0.0 - - 10 - - - -
13/10:30am 20.6 NW 5 7 1006.6 - 0.0 - - 10 - - - -
13/10:11am 20.3 NW 5 7 1006.9 - 0.0 - Partly cloudy 10 - - - -
13/10:00am 20.1 NW 4 6 1007.0 - 0.0 - Partly cloudy 10 - - - -
13/09:40am 19.8 W 1 5 1007.2 - 0.0 - Partly cloudy 10 - - - -
13/09:30am 19.5 S 2 4 1007.1 - 0.0 - Partly cloudy 10 - - - -
13/09:00am 18.1 S 5 6 1007.3 - 0.0 - Cloudy 10 - - - -
13/08:30am 16.7 S 4 6 1007.4 - 0.0 - - 10 - - - -
13/08:12am 16.2 ESE 6 8 1007.4 - 0.0 - Partly cloudy 10 - - - -
13/08:00am 15.5 SSE 8 11 1007.5 - 0.0 - Partly cloudy 10 - - - -
13/07:37am 15.9 SSW 8 13 1008.0 - 0.0 - Partly cloudy 10 - - - -
13/07:30am 16.4 SW 8 10 1008.0 - 0.0 - Partly cloudy 10 - - - -
13/07:00am 16.0 SE 6 7 1007.2 - 0.0 - Partly cloudy 10 - - - -
13/06:30am 15.3 SSE 8 9 1007.6 - 0.0 - - 10 - - - -
13/06:00am 14.9 S 7 8 1008.0 - 0.0 - Partly cloudy 10 - - - -
13/05:30am 15.0 S 6 7 1007.8 - 0.0 - Partly cloudy 10 - - - -
13/05:15am 14.9 S 6 7 1008.0 - 0.0 - Partly cloudy 10 - - - -
13/05:00am 15.2 S 6 7 1008.0 - 0.0 - Partly cloudy 10 - - - -
13/04:52am 15.2 S 6 7 1008.3 - 0.0 - Partly cloudy 10 - - - -
13/04:30am 15.1 S 6 8 1008.2 - 0.0 - Partly cloudy 10 - - - -
13/04:13am 15.2 S 6 7 1008.3 - 0.0 - Partly cloudy 10 - - - -
13/04:00am 15.4 S 6 7 1008.7 - 0.0 - Partly cloudy 10 - - - -
13/03:30am 15.3 S 6 7 1008.7 - 0.0 - Partly cloudy 10 - - - -
13/03:16am 15.4 SSE 6 7 1009.0 - 0.0 - Partly cloudy 10 - - - -
13/03:00am 15.4 SSE 7 8 1009.2 - 0.0 - Mostly clear 10 - - - -
13/02:30am 15.8 S 6 7 1009.7 - 0.0 - Partly cloudy 10 - - - -
13/02:27am 15.8 S 6 7 1009.8 - 0.0 - Partly cloudy 10 - - - -
13/02:11am 15.8 S 6 7 1010.2 - 0.0 - Partly cloudy 10 - - - -
13/02:00am 15.8 S 6 7 1010.1 - 0.0 - Partly cloudy 10 - - - -
13/01:52am 15.7 S 5 6 1010.2 - 0.0 - Partly cloudy 10 - - - -
13/01:30am 15.8 S 6 7 1010.5 - 0.0 - Partly cloudy 10 - - - -
13/01:03am 15.3 SSE 5 6 1010.7 - 0.0 - Partly cloudy 10 - - - -
13/01:00am 15.3 SSE 5 6 1010.7 - 0.0 - Partly cloudy 10 - - - -
13/12:30am 15.2 S 4 5 1011.0 - 0.0 - - 10 - - - -
13/12:00am 15.5 SSE 4 5 1011.2 - 0.0 - - 10 - - - -
 
Date/Time
EDT
Temp

°C
Wind Pressure Rain
since 9am
mm
Weather Cloud Vis
km
Sea
Height
m
Swell
Dir
 
Speed
knots
Gust
knots
hPa Trend Height
m
Period
s
Dir
12/11:30pm 15.2 SSE 4 4 1011.4 - 0.0 - - 10 - - - -
12/11:00pm 15.7 S 3 4 1011.9 - 0.0 - - 10 - - - -
12/10:30pm 15.9 NNE 1 3 1011.9 - 0.0 - - 10 - - - -
12/10:00pm 17.2 NNW 3 5 1012.6 - 0.0 - - 10 - - - -
12/09:30pm 18.6 NNW 4 5 1012.7 - 0.0 - - 10 - - - -
12/09:00pm 18.7 NW 5 6 1013.0 - 0.0 - Mostly clear 10 - - - -
12/08:30pm 18.9 NNW 5 6 1012.8 - 0.0 - - 10 - - - -
12/08:00pm 19.6 NNW 5 6 1013.0 - 0.0 - - 10 - - - -
12/07:30pm 20.2 NNW 5 6 1013.1 - 0.0 - - 10 - - - -
12/07:00pm 20.4 NNW 7 8 1013.3 - 0.0 - - 10 - - - -
12/06:30pm 20.7 NW 8 10 1013.6 - 0.0 - - 10 - - - -
12/06:00pm 21.1 NNW 9 11 1013.7 - 0.0 - - 10 - - - -
12/05:30pm 21.1 NW 9 11 1014.0 - 0.0 - - 10 - - - -
12/05:00pm 21.5 NNW 8 11 1014.1 - 0.0 - - 10 - - - -
12/04:30pm 21.3 NW 9 11 1014.2 - 0.0 - - 10 - - - -
12/04:00pm 21.1 NNW 9 11 1014.4 - 0.0 - - 10 - - - -
12/03:30pm 21.7 NNW 9 14 1014.5 - 0.0 - Partly cloudy 10 - - - -
12/03:00pm 21.4 NNW 10 11 1014.9 - 0.0 - - 10 - - - -
12/02:30pm 21.9 NNW 10 12 1015.4 - 0.0 - Partly cloudy 10 - - - -
12/02:00pm 22.1 N 10 12 1015.6 - 0.0 - - 10 - - - -
12/01:30pm 21.1 N 9 12 1015.7 - 0.0 - - 10 - - - -
12/01:00pm 21.3 N 8 11 1016.0 - 0.0 - - 10 - - - -
12/12:30pm 21.3 NNE 9 12 1016.4 - 0.0 - - 10 - - - -
12/12:00pm 21.4 NNE 9 11 1016.6 - 0.0 - - 10 - - - -
12/11:30am 21.5 NNE 9 13 1016.8 - 0.0 - - 10 - - - -
12/11:00am 21.2 NNE 10 11 1017.2 - 0.0 - - 10 - - - -
12/10:30am 21.0 N 6 8 1017.5 - 0.0 - - 10 - - - -
12/10:00am 20.5 SSE 1 4 1017.5 - 0.0 - Partly cloudy 10 - - - -
12/09:30am 19.3 S 6 7 1017.6 - 0.0 - Partly cloudy 10 - - - -
12/09:00am 18.9 SSW 6 7 1017.6 - 0.0 - Cloudy 10 - - - -
12/08:30am 18.6 S 7 8 1017.4 - 0.0 - Partly cloudy 10 - - - -
12/08:00am 18.3 SSE 6 8 1017.2 - 0.0 - Partly cloudy 10 - - - -
12/07:30am 17.3 S 7 9 1016.9 - 0.0 - Partly cloudy 10 - - - -
12/07:00am 16.5 SSE 8 9 1016.6 - 0.0 - Partly cloudy 10 - - - -
12/06:30am 16.3 SSE 7 8 1016.5 - 0.0 - Partly cloudy 10 - - - -
12/06:00am 16.3 S 6 9 1016.5 - 0.0 - Cloudy 10 - - - -
12/05:30am 16.4 SSE 7 8 1016.6 - 0.0 - Partly cloudy 10 - - - -
12/05:00am 17.4 S 6 10 1016.6 - 0.0 - Cloudy 10 - - - -
12/04:45am 17.7 S 4 7 1016.6 - 0.0 - Cloudy 10 - - - -
12/04:30am 17.7 SSE 7 9 1016.5 - 0.0 - Partly cloudy 10 - - - -
12/04:00am 17.3 SSE 7 9 1016.6 - 0.0 - Cloudy 10 - - - -
12/03:30am 17.7 SSE 6 7 1016.9 - 0.0 - Cloudy 10 - - - -
12/03:23am 17.6 SSE 6 8 1016.9 - 0.0 - Cloudy 10 - - - -
12/03:00am 17.3 SSE 7 8 1017.1 - 0.0 - Cloudy 10 - - - -
12/02:30am 17.2 SSE 7 8 1017.2 - 0.0 - Cloudy 10 - - - -
12/02:00am 17.2 SSE 7 9 1017.4 - 0.0 - Cloudy 10 - - - -
12/01:30am 16.7 SSE 8 10 1017.4 - 0.0 - Cloudy 10 - - - -
12/01:00am 16.7 S 8 9 1017.7 - 0.0 - Cloudy 10 - - - -
12/12:30am 16.4 SSE 7 8 1017.8 - 0.0 - Cloudy 10 - - - -
12/12:00am 15.9 SSE 7 9 1017.9 - 0.0 - Mostly clear 10 - - - -
 
Date/Time
EDT
Temp

°C
Wind Pressure Rain
since 9am
mm
Weather Cloud Vis
km
Sea
Height
m
Swell
Dir
 
Speed
knots
Gust
knots
hPa Trend Height
m
Period
s
Dir
11/11:30pm 15.3 SE 7 8 1017.8 - 0.0 - - 10 - - - -
11/11:00pm 15.5 SE 7 8 1017.8 - 0.0 - - 10 - - - -
11/10:30pm 16.2 ESE 7 8 1017.7 - 0.0 - - 10 - - - -
11/10:00pm 16.3 ESE 6 8 1017.5 - 0.0 - - 10 - - - -
11/09:30pm 16.9 E 8 9 1017.0 - 0.0 - - 10 - - - -
11/09:00pm 18.4 NE 8 10 1016.9 - 0.0 - - 10 - - - -
11/08:30pm 18.8 NE 9 11 1016.5 - 0.0 - - 10 - - - -
11/08:00pm 19.2 NE 11 13 1016.0 - 0.0 - - 10 - - - -
11/07:30pm 19.7 NNE 10 13 1016.0 - 0.0 - - 10 - - - -
11/07:00pm 20.3 NNE 9 11 1015.6 - 0.0 - - 10 - - - -
11/06:30pm 20.0 NNE 10 12 1015.3 - 0.0 - - 10 - - - -
11/06:00pm 20.2 NNE 9 11 1015.3 - 0.0 - - 10 - - - -
11/05:30pm 20.4 NNE 9 12 1015.3 - 0.0 - - 10 - - - -

Other Formats:

Comma delimited format used in spreadsheet applications
http://www.bom.gov.au/fwo/IDV60701/IDV60701.95960.axf

JavaScript Object Notation format (JSON) in row-major order
http://www.bom.gov.au/fwo/IDV60701/IDV60701.95960.json